sensor_id;sensor_type;location;lat;lon;timestamp;pressure;altitude;pressure_sealevel;temperature;humidity
69667;BME280;66534;52.370;4.832;2023-06-14T00:00:24;101565.81;;;20.17;100.00
69667;BME280;66534;52.370;4.832;2023-06-14T00:00:55;101571.47;;;20.12;100.00
69667;BME280;66534;52.370;4.832;2023-06-14T00:01:27;101564.06;;;20.28;100.00
69667;BME280;66534;52.370;4.832;2023-06-14T00:01:59;101566.78;;;20.15;100.00
69667;BME280;66534;52.370;4.832;2023-06-14T00:02:29;101579.34;;;20.13;100.00
69667;BME280;66534;52.370;4.832;2023-06-14T00:03:00;101562.31;;;20.16;100.00
69667;BME280;66534;52.370;4.832;2023-06-14T00:03:30;101568.31;;;20.07;100.00
69667;BME280;66534;52.370;4.832;2023-06-14T00:04:02;101563.41;;;20.01;100.00
69667;BME280;66534;52.370;4.832;2023-06-14T00:04:32;101568.03;;;19.99;100.00
69667;BME280;66534;52.370;4.832;2023-06-14T00:05:03;101565.09;;;20.02;100.00
69667;BME280;66534;52.370;4.832;2023-06-14T00:05:34;101561.94;;;19.97;100.00
69667;BME280;66534;52.370;4.832;2023-06-14T00:06:08;101561.38;;;20.04;100.00
69667;BME280;66534;52.370;4.832;2023-06-14T00:06:39;101568.56;;;19.91;100.00
69667;BME280;66534;52.370;4.832;2023-06-14T00:07:11;101563.13;;;19.93;100.00
69667;BME280;66534;52.370;4.832;2023-06-14T00:07:43;101558.00;;;19.89;100.00
69667;BME280;66534;52.370;4.832;2023-06-14T00:08:14;101564.63;;;19.84;100.00
69667;BME280;66534;52.370;4.832;2023-06-14T00:08:44;101563.25;;;19.91;100.00
69667;BME280;66534;52.370;4.832;2023-06-14T00:09:15;101563.97;;;19.93;100.00
69667;BME280;66534;52.370;4.832;2023-06-14T00:09:47;101566.19;;;19.99;100.00
69667;BME280;66534;52.370;4.832;2023-06-14T00:10:18;101562.56;;;20.00;100.00
69667;BME280;66534;52.370;4.832;2023-06-14T00:10:48;101564.72;;;19.95;100.00
69667;BME280;66534;52.370;4.832;2023-06-14T00:11:18;101563.03;;;19.94;100.00
69667;BME280;66534;52.370;4.832;2023-06-14T00:11:49;101562.69;;;19.99;100.00
69667;BME280;66534;52.370;4.832;2023-06-14T00:12:19;101559.41;;;19.95;100.00
69667;BME280;66534;52.370;4.832;2023-06-14T00:12:50;101566.53;;;19.95;100.00
69667;BME280;66534;52.370;4.832;2023-06-14T00:13:20;101566.53;;;19.95;100.00
69667;BME280;66534;52.370;4.832;2023-06-14T00:13:51;101564.94;;;19.92;100.00
69667;BME280;66534;52.370;4.832;2023-06-14T00:14:21;101566.41;;;19.96;100.00
69667;BME280;66534;52.370;4.832;2023-06-14T00:14:52;101563.63;;;19.98;100.00
69667;BME280;66534;52.370;4.832;2023-06-14T00:15:22;101568.03;;;19.99;100.00
69667;BME280;66534;52.370;4.832;2023-06-14T00:15:53;101563.41;;;20.01;100.00
69667;BME280;66534;52.370;4.832;2023-06-14T00:16:25;101559.19;;;19.98;100.00
69667;BME280;66534;52.370;4.832;2023-06-14T00:16:55;101564.50;;;19.98;100.00
69667;BME280;66534;52.370;4.832;2023-06-14T00:17:28;101562.91;;;19.96;100.00
69667;BME280;66534;52.370;4.832;2023-06-14T00:18:00;101572.03;;;20.04;100.00
69667;BME280;66534;52.370;4.832;2023-06-14T00:18:31;101563.97;;;19.93;100.00
69667;BME280;66534;52.370;4.832;2023-06-14T00:19:01;101562.41;;;19.90;100.00
69667;BME280;66534;52.370;4.832;2023-06-14T00:19:35;101563.34;;;19.89;100.00
69667;BME280;66534;52.370;4.832;2023-06-14T00:20:06;101568.22;;;19.96;100.00
69667;BME280;66534;52.370;4.832;2023-06-14T00:20:37;101577.50;;;20.03;100.00
69667;BME280;66534;52.370;4.832;2023-06-14T00:21:09;101561.25;;;20.06;100.00
69667;BME280;66534;52.370;4.832;2023-06-14T00:21:40;101567.91;;;20.00;100.00
69667;BME280;66534;52.370;4.832;2023-06-14T00:22:10;101566.41;;;19.96;100.00
69667;BME280;66534;52.370;4.832;2023-06-14T00:22:42;101568.34;;;19.94;100.00
69667;BME280;66534;52.370;4.832;2023-06-14T00:23:12;101567.38;;;19.95;100.00
69667;BME280;66534;52.370;4.832;2023-06-14T00:23:43;101564.81;;;19.94;100.00
69667;BME280;66534;52.370;4.832;2023-06-14T00:24:13;101563.78;;;19.83;100.00
69667;BME280;66534;52.370;4.832;2023-06-14T00:24:43;101569.97;;;19.84;100.00
69667;BME280;66534;52.370;4.832;2023-06-14T00:25:14;101557.94;;;19.78;100.00
69667;BME280;66534;52.370;4.832;2023-06-14T00:25:44;101561.97;;;19.84;100.00
69667;BME280;66534;52.370;4.832;2023-06-14T00:26:15;101562.81;;;19.84;100.00
69667;BME280;66534;52.370;4.832;2023-06-14T00:26:45;101559.19;;;19.85;100.00
69667;BME280;66534;52.370;4.832;2023-06-14T00:27:17;101560.56;;;19.91;100.00
69667;BME280;66534;52.370;4.832;2023-06-14T00:27:48;101566.31;;;19.85;100.00
69667;BME280;66534;52.370;4.832;2023-06-14T00:28:18;101557.84;;;19.80;100.00
69667;BME280;66534;52.370;4.832;2023-06-14T00:28:49;101556.47;;;19.74;100.00
69667;BME280;66534;52.370;4.832;2023-06-14T00:29:19;101557.09;;;19.78;100.00
69667;BME280;66534;52.370;4.832;2023-06-14T00:29:49;101561.84;;;19.85;100.00
69667;BME280;66534;52.370;4.832;2023-06-14T00:30:20;101564.94;;;19.92;100.00
69667;BME280;66534;52.370;4.832;2023-06-14T00:30:51;101560.56;;;19.91;100.00
69667;BME280;66534;52.370;4.832;2023-06-14T00:31:21;101558.38;;;19.72;100.00
69667;BME280;66534;52.370;4.832;2023-06-14T00:31:51;101561.88;;;19.73;100.00
69667;BME280;66534;52.370;4.832;2023-06-14T00:32:22;101565.50;;;19.72;100.00
69667;BME280;66534;52.370;4.832;2023-06-14T00:32:55;101565.94;;;19.78;100.00
69667;BME280;66534;52.370;4.832;2023-06-14T00:33:27;101560.69;;;19.77;100.00
69667;BME280;66534;52.370;4.832;2023-06-14T00:33:57;101563.19;;;19.67;100.00
69667;BME280;66534;52.370;4.832;2023-06-14T00:34:27;101560.31;;;19.70;100.00
69667;BME280;66534;52.370;4.832;2023-06-14T00:34:58;101560.81;;;19.75;100.00
69667;BME280;66534;52.370;4.832;2023-06-14T00:35:28;101558.63;;;19.69;100.00
69667;BME280;66534;52.370;4.832;2023-06-14T00:35:58;101564.03;;;19.68;100.00
69667;BME280;66534;52.370;4.832;2023-06-14T00:36:29;101560.41;;;19.69;100.00
69667;BME280;66534;52.370;4.832;2023-06-14T00:36:59;101560.41;;;19.69;100.00
69667;BME280;66534;52.370;4.832;2023-06-14T00:37:30;101566.34;;;19.72;100.00
69667;BME280;66534;52.370;4.832;2023-06-14T00:38:00;101558.72;;;19.68;100.00
69667;BME280;66534;52.370;4.832;2023-06-14T00:38:31;101561.16;;;19.71;100.00
69667;BME280;66534;52.370;4.832;2023-06-14T00:39:02;101557.44;;;19.73;100.00
69667;BME280;66534;52.370;4.832;2023-06-14T00:39:33;101557.53;;;19.72;100.00
69667;BME280;66534;52.370;4.832;2023-06-14T00:40:05;101557.44;;;19.73;100.00
69667;BME280;66534;52.370;4.832;2023-06-14T00:40:35;101565.13;;;19.65;100.00
69667;BME280;66534;52.370;4.832;2023-06-14T00:41:06;101563.31;;;19.65;100.00
69667;BME280;66534;52.370;4.832;2023-06-14T00:41:36;101559.84;;;19.76;100.00
69667;BME280;66534;52.370;4.832;2023-06-14T00:42:07;101558.59;;;19.82;100.00
69667;BME280;66534;52.370;4.832;2023-06-14T00:42:37;101561.88;;;19.73;100.00
69667;BME280;66534;52.370;4.832;2023-06-14T00:43:08;101557.44;;;19.73;100.00
69667;BME280;66534;52.370;4.832;2023-06-14T00:43:39;101564.34;;;19.76;100.00
69667;BME280;66534;52.370;4.832;2023-06-14T00:44:09;101560.50;;;19.80;100.00
69667;BME280;66534;52.370;4.832;2023-06-14T00:44:39;101555.97;;;19.93;100.00
69667;BME280;66534;52.370;4.832;2023-06-14T00:45:10;101561.44;;;19.92;100.00
69667;BME280;66534;52.370;4.832;2023-06-14T00:45:40;101566.41;;;19.96;100.00
69667;BME280;66534;52.370;4.832;2023-06-14T00:46:11;101558.84;;;20.03;100.00
69667;BME280;66534;52.370;4.832;2023-06-14T00:46:41;101566.50;;;20.07;100.00
69667;BME280;66534;52.370;4.832;2023-06-14T00:47:11;101554.88;;;20.08;100.00
69667;BME280;66534;52.370;4.832;2023-06-14T00:47:42;101560.91;;;20.10;100.00
69667;BME280;66534;52.370;4.832;2023-06-14T00:48:13;101563.84;;;20.07;100.00
69667;BME280;66534;52.370;4.832;2023-06-14T00:48:44;101557.53;;;20.08;100.00
69667;BME280;66534;52.370;4.832;2023-06-14T00:49:15;101560.53;;;20.04;100.00
69667;BME280;66534;52.370;4.832;2023-06-14T00:49:48;101561.72;;;20.00;100.00
69667;BME280;66534;52.370;4.832;2023-06-14T00:50:19;101563.97;;;19.93;100.00
69667;BME280;66534;52.370;4.832;2023-06-14T00:50:50;101559.94;;;19.87;100.00
69667;BME280;66534;52.370;4.832;2023-06-14T00:51:22;101569.22;;;19.82;100.00
69667;BME280;66534;52.370;4.832;2023-06-14T00:51:53;101563.91;;;19.82;100.00
69667;BME280;66534;52.370;4.832;2023-06-14T00:52:23;101569.00;;;19.85;100.00
69667;BME280;66534;52.370;4.832;2023-06-14T00:52:56;101566.28;;;19.74;100.00
69667;BME280;66534;52.370;4.832;2023-06-14T00:53:28;101563.19;;;19.67;100.00
69667;BME280;66534;52.370;4.832;2023-06-14T00:53:59;101565.84;;;19.67;100.00
69667;BME280;66534;52.370;4.832;2023-06-14T00:54:30;101566.88;;;19.90;100.00
69667;BME280;66534;52.370;4.832;2023-06-14T00:55:00;101561.31;;;19.93;100.00
69667;BME280;66534;52.370;4.832;2023-06-14T00:55:31;101565.44;;;19.73;100.00
69667;BME280;66534;52.370;4.832;2023-06-14T00:56:02;101563.06;;;19.69;100.00
69667;BME280;66534;52.370;4.832;2023-06-14T00:56:35;101565.44;;;19.73;100.00
69667;BME280;66534;52.370;4.832;2023-06-14T00:57:06;101566.69;;;19.68;100.00
69667;BME280;66534;52.370;4.832;2023-06-14T00:57:37;101562.53;;;19.76;100.00
69667;BME280;66534;52.370;4.832;2023-06-14T00:58:08;101558.50;;;19.71;100.00
69667;BME280;66534;52.370;4.832;2023-06-14T00:58:39;101565.94;;;19.78;100.00
69667;BME280;66534;52.370;4.832;2023-06-14T00:59:11;101561.88;;;19.73;100.00
69667;BME280;66534;52.370;4.832;2023-06-14T00:59:46;101561.69;;;19.63;100.00
69667;BME280;66534;52.370;4.832;2023-06-14T01:00:17;101565.97;;;19.65;100.00
69667;BME280;66534;52.370;4.832;2023-06-14T01:00:48;101559.69;;;19.67;100.00
69667;BME280;66534;52.370;4.832;2023-06-14T01:01:18;101561.34;;;19.80;100.00
69667;BME280;66534;52.370;4.832;2023-06-14T01:01:49;101567.31;;;19.84;100.00
69667;BME280;66534;52.370;4.832;2023-06-14T01:02:19;101562.59;;;19.87;100.00
69667;BME280;66534;52.370;4.832;2023-06-14T01:02:50;101570.59;;;19.87;100.00
69667;BME280;66534;52.370;4.832;2023-06-14T01:03:20;101561.59;;;19.77;100.00
69667;BME280;66534;52.370;4.832;2023-06-14T01:03:52;101570.09;;;19.70;100.00
69667;BME280;66534;52.370;4.832;2023-06-14T01:04:23;101567.66;;;19.54;100.00
69667;BME280;66534;52.370;4.832;2023-06-14T01:04:53;101566.69;;;19.42;100.00
69667;BME280;66534;52.370;4.832;2023-06-14T01:05:24;101563.81;;;19.45;100.00
69667;BME280;66534;52.370;4.832;2023-06-14T01:06:00;101565.31;;;19.49;100.00
69667;BME280;66534;52.370;4.832;2023-06-14T01:08:50;101567.88;;;19.38;100.00
69667;BME280;66534;52.370;4.832;2023-06-14T01:10:56;101565.31;;;19.49;100.00
69667;BME280;66534;52.370;4.832;2023-06-14T01:11:43;101570.97;;;19.45;100.00
69667;BME280;66534;52.370;4.832;2023-06-14T01:12:40;101568.50;;;19.41;100.00
69667;BME280;66534;52.370;4.832;2023-06-14T01:13:29;101567.88;;;19.38;100.00
69667;BME280;66534;52.370;4.832;2023-06-14T01:14:03;101571.69;;;19.47;100.00
69667;BME280;66534;52.370;4.832;2023-06-14T01:14:35;101573.19;;;19.38;100.00
69667;BME280;66534;52.370;4.832;2023-06-14T01:15:07;101566.56;;;19.44;100.00
69667;BME280;66534;52.370;4.832;2023-06-14T01:15:38;101569.47;;;19.40;100.00
69667;BME280;66534;52.370;4.832;2023-06-14T01:16:11;101563.16;;;19.54;100.00
69667;BME280;66534;52.370;4.832;2023-06-14T01:16:42;101562.53;;;19.63;100.00
69667;BME280;66534;52.370;4.832;2023-06-14T01:17:15;101564.13;;;19.53;100.00
69667;BME280;66534;52.370;4.832;2023-06-14T01:17:48;101565.84;;;19.54;100.00
69667;BME280;66534;52.370;4.832;2023-06-14T01:18:21;101562.00;;;19.58;100.00
69667;BME280;66534;52.370;4.832;2023-06-14T01:18:54;101566.59;;;19.56;100.00
69667;BME280;66534;52.370;4.832;2023-06-14T01:19:26;101563.94;;;19.56;100.00
69667;BME280;66534;52.370;4.832;2023-06-14T01:20:01;101562.00;;;19.46;100.00
69667;BME280;66534;52.370;4.832;2023-06-14T01:20:33;101571.16;;;19.41;100.00
69667;BME280;66534;52.370;4.832;2023-06-14T01:21:06;101561.47;;;19.53;100.00
69667;BME280;66534;52.370;4.832;2023-06-14T01:21:50;101554.56;;;19.51;100.00
69667;BME280;66534;52.370;4.832;2023-06-14T01:22:21;101564.03;;;19.42;100.00
69667;BME280;66534;52.370;4.832;2023-06-14T01:22:51;101567.03;;;19.25;100.00
69667;BME280;66534;52.370;4.832;2023-06-14T01:23:23;101560.00;;;19.24;100.00
69667;BME280;66534;52.370;4.832;2023-06-14T01:23:53;101565.34;;;19.24;100.00
69667;BME280;66534;52.370;4.832;2023-06-14T01:24:24;101566.69;;;19.29;100.00
69667;BME280;66534;52.370;4.832;2023-06-14T01:24:55;101563.41;;;19.26;100.00
69667;BME280;66534;52.370;4.832;2023-06-14T01:25:25;101561.81;;;19.36;100.00
69667;BME280;66534;52.370;4.832;2023-06-14T01:25:56;101564.88;;;19.30;100.00
69667;BME280;66534;52.370;4.832;2023-06-14T01:26:26;101563.00;;;19.19;100.00
69667;BME280;66534;52.370;4.832;2023-06-14T01:26:59;101561.06;;;19.21;100.00
69667;BME280;66534;52.370;4.832;2023-06-14T01:27:31;101564.56;;;19.34;100.00
69667;BME280;66534;52.370;4.832;2023-06-14T01:28:03;101567.66;;;19.28;100.00
69667;BME280;66534;52.370;4.832;2023-06-14T01:28:40;101565.31;;;19.36;100.00
69667;BME280;66534;52.370;4.832;2023-06-14T01:29:10;101569.88;;;19.34;100.00
69667;BME280;66534;52.370;4.832;2023-06-14T01:29:42;101565.53;;;19.33;100.00
69667;BME280;66534;52.370;4.832;2023-06-14T01:30:15;101568.00;;;19.11;100.00
69667;BME280;66534;52.370;4.832;2023-06-14T01:30:49;101567.88;;;19.12;100.00
69667;BME280;66534;52.370;4.832;2023-06-14T01:31:23;101568.41;;;19.17;100.00
69667;BME280;66534;52.370;4.832;2023-06-14T01:31:54;101570.41;;;19.14;100.00
69667;BME280;66534;52.370;4.832;2023-06-14T01:32:25;101562.44;;;19.14;100.00
69667;BME280;66534;52.370;4.832;2023-06-14T01:32:58;101570.00;;;19.33;100.00
69667;BME280;66534;52.370;4.832;2023-06-14T01:33:29;101568.72;;;19.38;100.00
69667;BME280;66534;52.370;4.832;2023-06-14T01:34:01;101564.38;;;19.37;100.00
69667;BME280;66534;52.370;4.832;2023-06-14T01:34:31;101568.63;;;19.27;100.00
69667;BME280;66534;52.370;4.832;2023-06-14T01:35:01;101565.53;;;19.21;100.00
69667;BME280;66534;52.370;4.832;2023-06-14T01:35:33;101569.56;;;19.26;100.00
69667;BME280;66534;52.370;4.832;2023-06-14T01:36:04;101566.69;;;19.16;100.00
69667;BME280;66534;52.370;4.832;2023-06-14T01:36:37;101568.06;;;19.22;100.00
69667;BME280;66534;52.370;4.832;2023-06-14T01:37:11;101575.84;;;19.38;100.00
69667;BME280;66534;52.370;4.832;2023-06-14T01:37:43;101574.03;;;19.51;100.00
69667;BME280;66534;52.370;4.832;2023-06-14T01:38:21;101573.94;;;19.53;100.00
69667;BME280;66534;52.370;4.832;2023-06-14T01:38:54;101569.56;;;19.39;100.00
69667;BME280;66534;52.370;4.832;2023-06-14T01:39:26;101573.63;;;19.32;100.00
69667;BME280;66534;52.370;4.832;2023-06-14T01:39:56;101576.19;;;19.21;100.00
69667;BME280;66534;52.370;4.832;2023-06-14T01:40:28;101569.16;;;19.20;100.00
69667;BME280;66534;52.370;4.832;2023-06-14T01:41:00;101570.53;;;19.38;100.00
69667;BME280;66534;52.370;4.832;2023-06-14T01:41:31;101567.34;;;19.46;100.00
69667;BME280;66534;52.370;4.832;2023-06-14T01:42:04;101568.41;;;19.30;100.00
69667;BME280;66534;52.370;4.832;2023-06-14T01:42:36;101577.66;;;19.25;100.00
69667;BME280;66534;52.370;4.832;2023-06-14T01:43:08;101579.47;;;19.24;100.00
69667;BME280;66534;52.370;4.832;2023-06-14T01:43:40;101569.56;;;19.26;100.00
69667;BME280;66534;52.370;4.832;2023-06-14T01:44:12;101573.06;;;19.14;100.00
69667;BME280;66534;52.370;4.832;2023-06-14T01:44:45;101577.88;;;19.09;100.00
69667;BME280;66534;52.370;4.832;2023-06-14T01:45:18;101574.16;;;19.11;100.00
69667;BME280;66534;52.370;4.832;2023-06-14T01:45:50;101568.91;;;18.97;100.00
69667;BME280;66534;52.370;4.832;2023-06-14T01:46:21;101567.22;;;18.96;100.00
69667;BME280;66534;52.370;4.832;2023-06-14T01:46:53;101572.53;;;18.96;100.00
69667;BME280;66534;52.370;4.832;2023-06-14T01:47:24;101565.66;;;19.06;100.00
69667;BME280;66534;52.370;4.832;2023-06-14T01:47:55;101577.13;;;18.94;100.00
69667;BME280;66534;52.370;4.832;2023-06-14T01:48:25;101572.31;;;18.86;100.00
69667;BME280;66534;52.370;4.832;2023-06-14T01:48:56;101574.53;;;18.92;100.00
69667;BME280;66534;52.370;4.832;2023-06-14T01:49:27;101580.50;;;18.96;100.00
69667;BME280;66534;52.370;4.832;2023-06-14T01:49:57;101573.50;;;18.95;100.00
69667;BME280;66534;52.370;4.832;2023-06-14T01:50:28;101581.69;;;19.05;100.00
69667;BME280;66534;52.370;4.832;2023-06-14T01:51:01;101576.63;;;19.14;100.00
69667;BME280;66534;52.370;4.832;2023-06-14T01:51:31;101580.66;;;19.20;100.00
69667;BME280;66534;52.370;4.832;2023-06-14T01:52:02;101572.13;;;19.15;100.00
69667;BME280;66534;52.370;4.832;2023-06-14T01:52:32;101572.00;;;19.04;100.00
69667;BME280;66534;52.370;4.832;2023-06-14T01:53:03;101575.00;;;18.99;100.00
69667;BME280;66534;52.370;4.832;2023-06-14T01:53:37;101570.50;;;18.87;100.00
69667;BME280;66534;52.370;4.832;2023-06-14T01:54:07;101568.91;;;18.97;100.00
69667;BME280;66534;52.370;4.832;2023-06-14T01:54:38;101572.84;;;18.91;100.00
69667;BME280;66534;52.370;4.832;2023-06-14T01:55:12;101569.03;;;18.96;100.00
69667;BME280;66534;52.370;4.832;2023-06-14T01:55:42;101568.59;;;18.89;100.00
69667;BME280;66534;52.370;4.832;2023-06-14T01:56:13;101568.59;;;18.89;100.00
69667;BME280;66534;52.370;4.832;2023-06-14T01:56:44;101571.38;;;19.00;100.00
69667;BME280;66534;52.370;4.832;2023-06-14T01:57:14;101571.38;;;19.13;100.00
69667;BME280;66534;52.370;4.832;2023-06-14T01:57:45;101574.69;;;19.16;100.00
69667;BME280;66534;52.370;4.832;2023-06-14T01:58:16;101572.97;;;19.03;100.00
69667;BME280;66534;52.370;4.832;2023-06-14T01:58:46;101569.00;;;18.83;100.00
69667;BME280;66534;52.370;4.832;2023-06-14T01:59:18;101565.31;;;18.85;100.00
69667;BME280;66534;52.370;4.832;2023-06-14T01:59:48;101570.53;;;19.00;100.00
69667;BME280;66534;52.370;4.832;2023-06-14T02:00:19;101573.06;;;19.01;100.00
69667;BME280;66534;52.370;4.832;2023-06-14T02:00:51;101573.50;;;19.21;100.00
69667;BME280;66534;52.370;4.832;2023-06-14T02:01:25;101568.00;;;19.11;100.00
69667;BME280;66534;52.370;4.832;2023-06-14T02:01:56;101573.31;;;18.98;100.00
69667;BME280;66534;52.370;4.832;2023-06-14T02:02:27;101575.00;;;18.99;100.00
69667;BME280;66534;52.370;4.832;2023-06-14T02:02:57;101571.38;;;19.00;100.00
69667;BME280;66534;52.370;4.832;2023-06-14T02:03:27;101572.41;;;18.98;100.00
69667;BME280;66534;52.370;4.832;2023-06-14T02:03:58;101576.03;;;18.84;100.00
69667;BME280;66534;52.370;4.832;2023-06-14T02:04:28;101573.69;;;18.79;100.00
69667;BME280;66534;52.370;4.832;2023-06-14T02:04:59;101576.47;;;18.90;100.00
69667;BME280;66534;52.370;4.832;2023-06-14T02:05:29;101573.91;;;18.89;100.00
69667;BME280;66534;52.370;4.832;2023-06-14T02:06:00;101573.69;;;18.79;100.00
69667;BME280;66534;52.370;4.832;2023-06-14T02:06:30;101576.84;;;18.72;100.00
69667;BME280;66534;52.370;4.832;2023-06-14T02:07:01;101585.41;;;18.62;100.00
69667;BME280;66534;52.370;4.832;2023-06-14T02:07:31;101571.16;;;18.63;100.00
69667;BME280;66534;52.370;4.832;2023-06-14T02:08:03;101571.28;;;18.62;100.00
69667;BME280;66534;52.370;4.832;2023-06-14T02:08:33;101574.38;;;18.69;100.00
69667;BME280;66534;52.370;4.832;2023-06-14T02:09:04;101574.47;;;18.67;100.00
69667;BME280;66534;52.370;4.832;2023-06-14T02:09:34;101572.06;;;18.77;100.00
69667;BME280;66534;52.370;4.832;2023-06-14T02:10:05;101575.19;;;18.83;100.00
69667;BME280;66534;52.370;4.832;2023-06-14T02:10:37;101571.78;;;18.81;100.00
69667;BME280;66534;52.370;4.832;2023-06-14T02:11:08;101566.13;;;18.73;100.00
69667;BME280;66534;52.370;4.832;2023-06-14T02:11:38;101567.06;;;18.72;100.00
69667;BME280;66534;52.370;4.832;2023-06-14T02:12:08;101572.13;;;18.62;100.00
69667;BME280;66534;52.370;4.832;2023-06-14T02:12:39;101566.97;;;18.74;100.00
69667;BME280;66534;52.370;4.832;2023-06-14T02:13:10;101567.63;;;18.77;100.00
69667;BME280;66534;52.370;4.832;2023-06-14T02:13:40;101569.91;;;18.69;100.00
69667;BME280;66534;52.370;4.832;2023-06-14T02:14:11;101565.53;;;18.68;100.00
69667;BME280;66534;52.370;4.832;2023-06-14T02:14:41;101564.81;;;18.66;100.00
69667;BME280;66534;52.370;4.832;2023-06-14T02:15:12;101574.78;;;18.62;100.00
69667;BME280;66534;52.370;4.832;2023-06-14T02:15:46;101564.91;;;18.64;100.00
69667;BME280;66534;52.370;4.832;2023-06-14T02:16:21;101572.13;;;18.62;100.00
69667;BME280;66534;52.370;4.832;2023-06-14T02:16:52;101569.28;;;18.65;100.00
69667;BME280;66534;52.370;4.832;2023-06-14T02:17:23;101571.94;;;18.65;100.00
69667;BME280;66534;52.370;4.832;2023-06-14T02:17:53;101566.97;;;18.74;100.00
69667;BME280;66534;52.370;4.832;2023-06-14T02:18:24;101566.13;;;18.73;100.00
69667;BME280;66534;52.370;4.832;2023-06-14T02:18:54;101565.09;;;18.61;100.00
69667;BME280;66534;52.370;4.832;2023-06-14T02:19:25;101559.44;;;18.53;100.00
69667;BME280;66534;52.370;4.832;2023-06-14T02:19:56;101567.22;;;18.56;100.00
69667;BME280;66534;52.370;4.832;2023-06-14T02:20:27;101565.97;;;18.62;100.00
69667;BME280;66534;52.370;4.832;2023-06-14T02:20:58;101560.69;;;18.75;100.00
69667;BME280;66534;52.370;4.832;2023-06-14T02:21:28;101562.88;;;18.68;100.00
69667;BME280;66534;52.370;4.832;2023-06-14T02:21:58;101571.06;;;18.65;100.00
69667;BME280;66534;52.370;4.832;2023-06-14T02:22:29;101560.44;;;18.65;100.00
69667;BME280;66534;52.370;4.832;2023-06-14T02:22:59;101560.00;;;18.58;100.00
69667;BME280;66534;52.370;4.832;2023-06-14T02:23:30;101567.13;;;18.58;100.00
69667;BME280;66534;52.370;4.832;2023-06-14T02:24:02;101564.56;;;18.56;100.00
69667;BME280;66534;52.370;4.832;2023-06-14T02:24:32;101558.53;;;18.67;100.00
69667;BME280;66534;52.370;4.832;2023-06-14T02:25:02;101561.69;;;18.59;100.00
69667;BME280;66534;52.370;4.832;2023-06-14T02:25:33;101566.34;;;18.56;100.00
69667;BME280;66534;52.370;4.832;2023-06-14T02:26:04;101559.94;;;18.73;100.00
69667;BME280;66534;52.370;4.832;2023-06-14T02:26:34;101551.63;;;18.64;100.00
69667;BME280;66534;52.370;4.832;2023-06-14T02:27:05;101554.28;;;18.64;100.00
69667;BME280;66534;52.370;4.832;2023-06-14T02:27:36;101562.75;;;18.57;100.00
69667;BME280;66534;52.370;4.832;2023-06-14T02:28:06;101561.59;;;18.61;100.00
69667;BME280;66534;52.370;4.832;2023-06-14T02:28:37;101564.22;;;18.48;100.00
69667;BME280;66534;52.370;4.832;2023-06-14T02:29:07;101561.81;;;18.58;100.00
69667;BME280;66534;52.370;4.832;2023-06-14T02:29:42;101563.81;;;18.54;100.00
69667;BME280;66534;52.370;4.832;2023-06-14T02:30:13;101561.88;;;18.44;100.00
69667;BME280;66534;52.370;4.832;2023-06-14T02:30:43;101565.69;;;18.39;100.00
69667;BME280;66534;52.370;4.832;2023-06-14T02:31:14;101566.63;;;18.38;100.00
69667;BME280;66534;52.370;4.832;2023-06-14T02:31:47;101565.88;;;18.36;100.00
69667;BME280;66534;52.370;4.832;2023-06-14T02:32:18;101565.03;;;18.36;100.00
69667;BME280;66534;52.370;4.832;2023-06-14T02:32:48;101563.97;;;18.38;100.00
69667;BME280;66534;52.370;4.832;2023-06-14T02:33:21;101563.03;;;18.39;100.00
69667;BME280;66534;52.370;4.832;2023-06-14T02:33:52;101564.91;;;18.37;100.00
69667;BME280;66534;52.370;4.832;2023-06-14T02:34:22;101569.28;;;18.38;100.00
69667;BME280;66534;52.370;4.832;2023-06-14T02:34:53;101566.91;;;18.34;100.00
69667;BME280;66534;52.370;4.832;2023-06-14T02:35:23;101566.84;;;18.35;100.00
69667;BME280;66534;52.370;4.832;2023-06-14T02:35:56;101561.97;;;18.42;100.00
69667;BME280;66534;52.370;4.832;2023-06-14T02:36:27;101567.38;;;18.40;100.00
69667;BME280;66534;52.370;4.832;2023-06-14T02:36:59;101562.75;;;18.30;100.00
69667;BME280;66534;52.370;4.832;2023-06-14T02:37:32;101565.22;;;18.33;100.00
69667;BME280;66534;52.370;4.832;2023-06-14T02:38:03;101565.88;;;18.36;100.00
69667;BME280;66534;52.370;4.832;2023-06-14T02:38:34;101566.22;;;18.45;100.00
69667;BME280;66534;52.370;4.832;2023-06-14T02:39:04;101568.06;;;18.57;100.00
69667;BME280;66534;52.370;4.832;2023-06-14T02:39:35;101566.88;;;18.48;100.00
69667;BME280;66534;52.370;4.832;2023-06-14T02:40:06;101567.13;;;18.58;100.00
69667;BME280;66534;52.370;4.832;2023-06-14T02:40:39;101568.72;;;18.60;100.00
69667;BME280;66534;52.370;4.832;2023-06-14T02:41:12;101565.16;;;18.47;100.00
69667;BME280;66534;52.370;4.832;2023-06-14T02:41:42;101552.09;;;18.44;100.00
69667;BME280;66534;52.370;4.832;2023-06-14T02:42:13;101574.09;;;18.46;100.00
69667;BME280;66534;52.370;4.832;2023-06-14T02:42:43;101562.50;;;18.47;100.00
69667;BME280;66534;52.370;4.832;2023-06-14T02:43:13;101573.34;;;18.44;100.00
69667;BME280;66534;52.370;4.832;2023-06-14T02:43:45;101566.53;;;18.40;100.00
69667;BME280;66534;52.370;4.832;2023-06-14T02:44:17;101566.44;;;18.41;100.00
69667;BME280;66534;52.370;4.832;2023-06-14T02:45:07;101573.09;;;18.34;100.00
69667;BME280;66534;52.370;4.832;2023-06-14T02:45:38;101563.78;;;18.41;100.00
69667;BME280;66534;52.370;4.832;2023-06-14T02:46:08;101563.03;;;18.39;100.00
69667;BME280;66534;52.370;4.832;2023-06-14T02:46:39;101561.81;;;18.31;100.00